sensor_id;sensor_type;location;lat;lon;timestamp;temperature;humidity
35894;DHT22;21994;48.204;16.516;2023-07-30T00:01:36;23.20;94.80
35894;DHT22;21994;48.204;16.516;2023-07-30T00:04:02;23.20;94.50
35894;DHT22;21994;48.204;16.516;2023-07-30T00:06:28;23.30;94.60
35894;DHT22;21994;48.204;16.516;2023-07-30T00:08:54;23.40;94.60
35894;DHT22;21994;48.204;16.516;2023-07-30T00:11:19;23.40;94.50
35894;DHT22;21994;48.204;16.516;2023-07-30T00:13:45;23.40;94.30
35894;DHT22;21994;48.204;16.516;2023-07-30T00:16:11;23.40;94.20
35894;DHT22;21994;48.204;16.516;2023-07-30T00:18:37;23.50;94.20
35894;DHT22;21994;48.204;16.516;2023-07-30T00:21:02;23.40;94.70
35894;DHT22;21994;48.204;16.516;2023-07-30T00:23:28;23.20;95.70
35894;DHT22;21994;48.204;16.516;2023-07-30T00:25:54;23.10;96.10
35894;DHT22;21994;48.204;16.516;2023-07-30T00:28:20;23.10;95.70
35894;DHT22;21994;48.204;16.516;2023-07-30T00:30:46;23.00;96.40
35894;DHT22;21994;48.204;16.516;2023-07-30T00:33:12;22.90;96.40
35894;DHT22;21994;48.204;16.516;2023-07-30T00:35:37;22.80;97.00
35894;DHT22;21994;48.204;16.516;2023-07-30T00:38:03;22.80;96.60
35894;DHT22;21994;48.204;16.516;2023-07-30T00:40:29;22.70;96.90
35894;DHT22;21994;48.204;16.516;2023-07-30T00:42:55;22.80;97.10
35894;DHT22;21994;48.204;16.516;2023-07-30T00:45:20;22.80;98.60
35894;DHT22;21994;48.204;16.516;2023-07-30T00:47:46;22.60;98.30
35894;DHT22;21994;48.204;16.516;2023-07-30T00:50:13;22.50;98.50
35894;DHT22;21994;48.204;16.516;2023-07-30T00:52:40;22.50;98.50
35894;DHT22;21994;48.204;16.516;2023-07-30T00:55:06;22.60;98.60
35894;DHT22;21994;48.204;16.516;2023-07-30T00:57:33;22.50;98.20
35894;DHT22;21994;48.204;16.516;2023-07-30T01:00:00;22.50;98.50
35894;DHT22;21994;48.204;16.516;2023-07-30T01:02:29;22.50;98.20
35894;DHT22;21994;48.204;16.516;2023-07-30T01:04:55;22.40;98.60
35894;DHT22;21994;48.204;16.516;2023-07-30T01:07:21;22.40;98.60
35894;DHT22;21994;48.204;16.516;2023-07-30T01:09:47;22.40;98.50
35894;DHT22;21994;48.204;16.516;2023-07-30T01:12:12;22.40;98.30
35894;DHT22;21994;48.204;16.516;2023-07-30T01:14:38;22.50;97.50
35894;DHT22;21994;48.204;16.516;2023-07-30T01:17:05;22.50;97.50
35894;DHT22;21994;48.204;16.516;2023-07-30T01:19:30;22.60;97.70
35894;DHT22;21994;48.204;16.516;2023-07-30T01:21:56;22.60;97.60
35894;DHT22;21994;48.204;16.516;2023-07-30T01:24:23;22.50;97.70
35894;DHT22;21994;48.204;16.516;2023-07-30T01:26:55;22.50;97.80
35894;DHT22;21994;48.204;16.516;2023-07-30T01:29:27;22.40;97.70
35894;DHT22;21994;48.204;16.516;2023-07-30T01:31:57;22.30;98.30
35894;DHT22;21994;48.204;16.516;2023-07-30T01:34:24;22.30;97.80
35894;DHT22;21994;48.204;16.516;2023-07-30T01:36:53;22.40;97.50
35894;DHT22;21994;48.204;16.516;2023-07-30T01:39:19;22.50;97.30
35894;DHT22;21994;48.204;16.516;2023-07-30T01:41:45;22.50;97.40
35894;DHT22;21994;48.204;16.516;2023-07-30T01:44:11;22.60;97.10
35894;DHT22;21994;48.204;16.516;2023-07-30T01:46:37;22.60;97.20
35894;DHT22;21994;48.204;16.516;2023-07-30T01:49:02;22.60;97.20
35894;DHT22;21994;48.204;16.516;2023-07-30T01:51:28;22.50;97.10
35894;DHT22;21994;48.204;16.516;2023-07-30T01:53:54;22.50;97.50
35894;DHT22;21994;48.204;16.516;2023-07-30T01:56:20;22.50;97.20
35894;DHT22;21994;48.204;16.516;2023-07-30T01:58:46;22.50;97.10
35894;DHT22;21994;48.204;16.516;2023-07-30T02:01:11;22.50;97.00
35894;DHT22;21994;48.204;16.516;2023-07-30T02:03:37;22.50;97.00
35894;DHT22;21994;48.204;16.516;2023-07-30T02:06:03;22.50;96.90
35894;DHT22;21994;48.204;16.516;2023-07-30T02:08:29;22.60;96.80
35894;DHT22;21994;48.204;16.516;2023-07-30T02:10:58;22.60;96.90
35894;DHT22;21994;48.204;16.516;2023-07-30T02:13:24;22.60;96.90
35894;DHT22;21994;48.204;16.516;2023-07-30T02:15:51;22.50;97.00
35894;DHT22;21994;48.204;16.516;2023-07-30T02:18:17;22.50;97.20
35894;DHT22;21994;48.204;16.516;2023-07-30T02:20:43;22.50;97.30
35894;DHT22;21994;48.204;16.516;2023-07-30T02:23:08;22.40;97.40
35894;DHT22;21994;48.204;16.516;2023-07-30T02:25:34;22.40;97.50
35894;DHT22;21994;48.204;16.516;2023-07-30T02:28:00;22.40;97.10
35894;DHT22;21994;48.204;16.516;2023-07-30T02:30:27;22.50;97.00
35894;DHT22;21994;48.204;16.516;2023-07-30T02:32:53;22.50;97.10
35894;DHT22;21994;48.204;16.516;2023-07-30T02:35:19;22.50;97.10
35894;DHT22;21994;48.204;16.516;2023-07-30T02:37:45;22.50;97.40
35894;DHT22;21994;48.204;16.516;2023-07-30T02:40:11;22.40;97.40
35894;DHT22;21994;48.204;16.516;2023-07-30T02:42:36;22.30;97.90
35894;DHT22;21994;48.204;16.516;2023-07-30T02:45:03;22.40;97.40
35894;DHT22;21994;48.204;16.516;2023-07-30T02:47:29;22.40;97.40
35894;DHT22;21994;48.204;16.516;2023-07-30T02:49:55;22.40;97.30
35894;DHT22;21994;48.204;16.516;2023-07-30T02:52:20;22.30;97.70
35894;DHT22;21994;48.204;16.516;2023-07-30T02:54:46;22.50;97.40
35894;DHT22;21994;48.204;16.516;2023-07-30T02:57:12;22.50;96.90
35894;DHT22;21994;48.204;16.516;2023-07-30T02:59:38;22.60;96.90
35894;DHT22;21994;48.204;16.516;2023-07-30T03:02:05;22.50;97.30
35894;DHT22;21994;48.204;16.516;2023-07-30T03:04:31;22.40;97.10
35894;DHT22;21994;48.204;16.516;2023-07-30T03:06:57;22.50;96.80
35894;DHT22;21994;48.204;16.516;2023-07-30T03:09:23;22.50;96.80
35894;DHT22;21994;48.204;16.516;2023-07-30T03:11:49;22.40;97.00
35894;DHT22;21994;48.204;16.516;2023-07-30T03:14:15;22.40;97.30
35894;DHT22;21994;48.204;16.516;2023-07-30T03:16:41;22.20;97.50
35894;DHT22;21994;48.204;16.516;2023-07-30T03:19:07;22.30;97.40
35894;DHT22;21994;48.204;16.516;2023-07-30T03:21:33;22.30;97.00
35894;DHT22;21994;48.204;16.516;2023-07-30T03:23:58;22.40;96.90
35894;DHT22;21994;48.204;16.516;2023-07-30T03:26:24;22.40;96.90
35894;DHT22;21994;48.204;16.516;2023-07-30T03:28:50;22.30;97.00
35894;DHT22;21994;48.204;16.516;2023-07-30T03:31:17;22.20;97.30
35894;DHT22;21994;48.204;16.516;2023-07-30T03:33:43;22.20;97.40
35894;DHT22;21994;48.204;16.516;2023-07-30T03:36:10;22.10;97.40
35894;DHT22;21994;48.204;16.516;2023-07-30T03:38:36;22.20;97.30
35894;DHT22;21994;48.204;16.516;2023-07-30T03:41:04;22.30;97.30
35894;DHT22;21994;48.204;16.516;2023-07-30T03:43:30;22.30;97.40
35894;DHT22;21994;48.204;16.516;2023-07-30T03:45:55;22.30;97.30
35894;DHT22;21994;48.204;16.516;2023-07-30T03:48:21;22.30;97.40
35894;DHT22;21994;48.204;16.516;2023-07-30T03:50:47;22.30;97.40
35894;DHT22;21994;48.204;16.516;2023-07-30T03:53:13;22.30;97.30
35894;DHT22;21994;48.204;16.516;2023-07-30T03:55:39;22.30;97.40
35894;DHT22;21994;48.204;16.516;2023-07-30T03:58:05;22.30;97.50
35894;DHT22;21994;48.204;16.516;2023-07-30T04:00:31;22.30;97.40
35894;DHT22;21994;48.204;16.516;2023-07-30T04:02:57;22.40;97.30
35894;DHT22;21994;48.204;16.516;2023-07-30T04:05:22;22.40;97.30
35894;DHT22;21994;48.204;16.516;2023-07-30T04:07:48;22.30;97.50
35894;DHT22;21994;48.204;16.516;2023-07-30T04:10:14;22.30;97.60
35894;DHT22;21994;48.204;16.516;2023-07-30T04:12:40;22.30;97.50
35894;DHT22;21994;48.204;16.516;2023-07-30T04:15:06;22.40;97.30
35894;DHT22;21994;48.204;16.516;2023-07-30T04:17:32;22.40;97.20
35894;DHT22;21994;48.204;16.516;2023-07-30T04:19:59;22.50;97.20
35894;DHT22;21994;48.204;16.516;2023-07-30T04:22:25;22.50;97.20
35894;DHT22;21994;48.204;16.516;2023-07-30T04:24:50;22.50;97.40
35894;DHT22;21994;48.204;16.516;2023-07-30T04:27:16;22.50;97.30
35894;DHT22;21994;48.204;16.516;2023-07-30T04:29:42;22.50;97.30
35894;DHT22;21994;48.204;16.516;2023-07-30T04:32:08;22.50;97.20
35894;DHT22;21994;48.204;16.516;2023-07-30T04:34:33;22.60;97.10
35894;DHT22;21994;48.204;16.516;2023-07-30T04:36:59;22.60;97.20
35894;DHT22;21994;48.204;16.516;2023-07-30T04:39:25;22.60;97.10
35894;DHT22;21994;48.204;16.516;2023-07-30T04:41:51;22.60;97.20
35894;DHT22;21994;48.204;16.516;2023-07-30T04:44:16;22.60;97.30
35894;DHT22;21994;48.204;16.516;2023-07-30T04:46:42;22.60;97.20
35894;DHT22;21994;48.204;16.516;2023-07-30T04:49:08;22.60;97.50
35894;DHT22;21994;48.204;16.516;2023-07-30T04:51:34;22.60;97.60
35894;DHT22;21994;48.204;16.516;2023-07-30T04:54:02;22.60;97.70
35894;DHT22;21994;48.204;16.516;2023-07-30T04:56:28;22.50;97.70
35894;DHT22;21994;48.204;16.516;2023-07-30T04:58:54;22.50;97.80
35894;DHT22;21994;48.204;16.516;2023-07-30T05:01:20;22.60;97.60
35894;DHT22;21994;48.204;16.516;2023-07-30T05:03:46;22.60;97.70
35894;DHT22;21994;48.204;16.516;2023-07-30T05:06:11;22.60;97.90
35894;DHT22;21994;48.204;16.516;2023-07-30T05:08:37;22.50;98.50
35894;DHT22;21994;48.204;16.516;2023-07-30T05:11:03;22.50;98.30
35894;DHT22;21994;48.204;16.516;2023-07-30T05:13:29;22.50;98.20
35894;DHT22;21994;48.204;16.516;2023-07-30T05:15:54;22.60;98.50
35894;DHT22;21994;48.204;16.516;2023-07-30T05:18:20;22.60;98.30
35894;DHT22;21994;48.204;16.516;2023-07-30T05:20:46;22.70;98.00
35894;DHT22;21994;48.204;16.516;2023-07-30T05:23:12;22.60;98.30
35894;DHT22;21994;48.204;16.516;2023-07-30T05:25:38;22.70;97.90
35894;DHT22;21994;48.204;16.516;2023-07-30T05:28:03;22.80;98.20
35894;DHT22;21994;48.204;16.516;2023-07-30T05:30:29;22.80;98.30
35894;DHT22;21994;48.204;16.516;2023-07-30T05:32:55;22.70;98.30
35894;DHT22;21994;48.204;16.516;2023-07-30T05:35:21;22.80;98.30
35894;DHT22;21994;48.204;16.516;2023-07-30T05:37:47;22.90;98.30
35894;DHT22;21994;48.204;16.516;2023-07-30T05:40:12;22.90;98.40
35894;DHT22;21994;48.204;16.516;2023-07-30T05:42:38;22.90;98.20
35894;DHT22;21994;48.204;16.516;2023-07-30T05:45:04;23.00;98.20
35894;DHT22;21994;48.204;16.516;2023-07-30T05:47:30;23.00;97.80
35894;DHT22;21994;48.204;16.516;2023-07-30T05:49:56;23.00;97.90
35894;DHT22;21994;48.204;16.516;2023-07-30T05:52:22;23.10;97.80
35894;DHT22;21994;48.204;16.516;2023-07-30T05:54:47;23.10;97.80
35894;DHT22;21994;48.204;16.516;2023-07-30T05:57:13;23.20;97.60
35894;DHT22;21994;48.204;16.516;2023-07-30T05:59:39;23.20;97.60
35894;DHT22;21994;48.204;16.516;2023-07-30T06:02:05;23.20;97.80
35894;DHT22;21994;48.204;16.516;2023-07-30T06:04:31;23.30;97.50
35894;DHT22;21994;48.204;16.516;2023-07-30T06:06:58;23.20;97.80
35894;DHT22;21994;48.204;16.516;2023-07-30T06:09:25;23.20;97.70
35894;DHT22;21994;48.204;16.516;2023-07-30T06:11:50;23.30;97.70
35894;DHT22;21994;48.204;16.516;2023-07-30T06:14:16;23.20;97.80
35894;DHT22;21994;48.204;16.516;2023-07-30T06:16:42;23.20;98.20
35894;DHT22;21994;48.204;16.516;2023-07-30T06:19:09;23.20;98.30
35894;DHT22;21994;48.204;16.516;2023-07-30T06:21:34;23.20;98.10
35894;DHT22;21994;48.204;16.516;2023-07-30T06:24:00;23.20;98.10
35894;DHT22;21994;48.204;16.516;2023-07-30T06:26:26;23.20;98.10
35894;DHT22;21994;48.204;16.516;2023-07-30T06:28:52;23.20;98.10
35894;DHT22;21994;48.204;16.516;2023-07-30T06:31:17;23.20;97.70
35894;DHT22;21994;48.204;16.516;2023-07-30T06:33:43;23.20;97.60
35894;DHT22;21994;48.204;16.516;2023-07-30T06:36:09;23.30;97.30
35894;DHT22;21994;48.204;16.516;2023-07-30T06:38:35;23.30;97.20
35894;DHT22;21994;48.204;16.516;2023-07-30T06:41:00;23.30;97.10
35894;DHT22;21994;48.204;16.516;2023-07-30T06:43:26;23.40;96.90
35894;DHT22;21994;48.204;16.516;2023-07-30T06:45:52;23.20;97.50
35894;DHT22;21994;48.204;16.516;2023-07-30T06:48:19;23.30;97.10
35894;DHT22;21994;48.204;16.516;2023-07-30T06:50:44;23.30;97.30
35894;DHT22;21994;48.204;16.516;2023-07-30T06:53:10;23.30;97.00
35894;DHT22;21994;48.204;16.516;2023-07-30T06:55:36;23.20;97.30
35894;DHT22;21994;48.204;16.516;2023-07-30T06:58:02;23.10;97.70
35894;DHT22;21994;48.204;16.516;2023-07-30T07:00:27;23.20;97.40
35894;DHT22;21994;48.204;16.516;2023-07-30T07:02:53;23.10;97.80
35894;DHT22;21994;48.204;16.516;2023-07-30T07:05:19;23.10;97.50
35894;DHT22;21994;48.204;16.516;2023-07-30T07:07:45;23.10;97.60
35894;DHT22;21994;48.204;16.516;2023-07-30T07:10:11;23.00;97.60
35894;DHT22;21994;48.204;16.516;2023-07-30T07:12:37;22.90;97.60
35894;DHT22;21994;48.204;16.516;2023-07-30T07:15:04;22.90;98.00
35894;DHT22;21994;48.204;16.516;2023-07-30T07:17:30;22.80;97.80
35894;DHT22;21994;48.204;16.516;2023-07-30T07:19:57;22.80;98.30
35894;DHT22;21994;48.204;16.516;2023-07-30T07:22:23;22.70;98.50
35894;DHT22;21994;48.204;16.516;2023-07-30T07:24:49;22.60;98.70
35894;DHT22;21994;48.204;16.516;2023-07-30T07:27:18;22.60;98.70
35894;DHT22;21994;48.204;16.516;2023-07-30T07:29:44;22.40;99.30
35894;DHT22;21994;48.204;16.516;2023-07-30T07:32:10;22.30;99.80
35894;DHT22;21994;48.204;16.516;2023-07-30T07:34:36;22.10;99.80
35894;DHT22;21994;48.204;16.516;2023-07-30T07:37:02;22.10;99.90
35894;DHT22;21994;48.204;16.516;2023-07-30T07:39:28;22.10;99.90
35894;DHT22;21994;48.204;16.516;2023-07-30T07:41:55;22.20;99.90
35894;DHT22;21994;48.204;16.516;2023-07-30T07:44:20;22.10;99.90
35894;DHT22;21994;48.204;16.516;2023-07-30T07:46:47;22.10;99.90
35894;DHT22;21994;48.204;16.516;2023-07-30T07:49:13;22.10;99.90
35894;DHT22;21994;48.204;16.516;2023-07-30T07:51:39;22.10;99.90
35894;DHT22;21994;48.204;16.516;2023-07-30T07:54:05;22.00;99.90
35894;DHT22;21994;48.204;16.516;2023-07-30T07:56:31;22.00;99.90
35894;DHT22;21994;48.204;16.516;2023-07-30T07:58:57;22.00;99.90
35894;DHT22;21994;48.204;16.516;2023-07-30T08:01:23;22.00;99.90
35894;DHT22;21994;48.204;16.516;2023-07-30T08:03:49;21.90;99.90
35894;DHT22;21994;48.204;16.516;2023-07-30T08:06:14;22.00;99.90
35894;DHT22;21994;48.204;16.516;2023-07-30T08:08:40;21.90;99.90
35894;DHT22;21994;48.204;16.516;2023-07-30T08:11:06;21.90;99.90
35894;DHT22;21994;48.204;16.516;2023-07-30T08:13:33;21.90;99.90
35894;DHT22;21994;48.204;16.516;2023-07-30T08:15:59;21.80;99.90
35894;DHT22;21994;48.204;16.516;2023-07-30T08:18:25;21.90;99.90
35894;DHT22;21994;48.204;16.516;2023-07-30T08:20:51;21.90;99.90
35894;DHT22;21994;48.204;16.516;2023-07-30T08:23:17;21.90;99.90
35894;DHT22;21994;48.204;16.516;2023-07-30T08:25:43;22.00;99.90
35894;DHT22;21994;48.204;16.516;2023-07-30T08:28:09;22.10;99.90
35894;DHT22;21994;48.204;16.516;2023-07-30T08:30:34;22.20;99.90
35894;DHT22;21994;48.204;16.516;2023-07-30T08:33:00;22.20;99.90
35894;DHT22;21994;48.204;16.516;2023-07-30T08:35:26;22.20;99.90
35894;DHT22;21994;48.204;16.516;2023-07-30T08:37:55;22.30;99.90
35894;DHT22;21994;48.204;16.516;2023-07-30T08:40:21;22.30;99.90
35894;DHT22;21994;48.204;16.516;2023-07-30T08:42:50;22.30;99.90
35894;DHT22;21994;48.204;16.516;2023-07-30T08:45:18;22.20;99.90
35894;DHT22;21994;48.204;16.516;2023-07-30T08:47:46;22.20;99.90
35894;DHT22;21994;48.204;16.516;2023-07-30T08:50:13;22.30;99.90
35894;DHT22;21994;48.204;16.516;2023-07-30T08:52:39;22.20;99.90
35894;DHT22;21994;48.204;16.516;2023-07-30T08:55:06;22.20;99.90
35894;DHT22;21994;48.204;16.516;2023-07-30T08:57:32;22.30;99.90
35894;DHT22;21994;48.204;16.516;2023-07-30T09:00:08;22.40;99.90
35894;DHT22;21994;48.204;16.516;2023-07-30T09:02:48;22.60;99.90
35894;DHT22;21994;48.204;16.516;2023-07-30T09:05:18;22.70;99.90
35894;DHT22;21994;48.204;16.516;2023-07-30T09:07:45;22.70;99.90
35894;DHT22;21994;48.204;16.516;2023-07-30T09:10:11;22.80;99.90
35894;DHT22;21994;48.204;16.516;2023-07-30T09:12:37;22.90;99.90
35894;DHT22;21994;48.204;16.516;2023-07-30T09:15:04;22.90;99.90
35894;DHT22;21994;48.204;16.516;2023-07-30T09:17:31;22.90;99.90
35894;DHT22;21994;48.204;16.516;2023-07-30T09:20:04;23.10;99.90
35894;DHT22;21994;48.204;16.516;2023-07-30T09:22:31;23.60;99.90
35894;DHT22;21994;48.204;16.516;2023-07-30T09:25:18;24.10;99.90
35894;DHT22;21994;48.204;16.516;2023-07-30T09:27:52;24.50;99.90
35894;DHT22;21994;48.204;16.516;2023-07-30T09:30:22;24.60;99.90
35894;DHT22;21994;48.204;16.516;2023-07-30T09:32:53;24.90;99.00
35894;DHT22;21994;48.204;16.516;2023-07-30T09:35:20;25.20;98.50
35894;DHT22;21994;48.204;16.516;2023-07-30T09:37:47;25.30;98.40
35894;DHT22;21994;48.204;16.516;2023-07-30T09:40:14;25.20;98.40
35894;DHT22;21994;48.204;16.516;2023-07-30T09:42:44;24.80;99.20
35894;DHT22;21994;48.204;16.516;2023-07-30T09:45:17;24.90;99.30
35894;DHT22;21994;48.204;16.516;2023-07-30T09:47:49;24.90;99.90
35894;DHT22;21994;48.204;16.516;2023-07-30T09:50:15;24.90;99.90
35894;DHT22;21994;48.204;16.516;2023-07-30T09:52:42;24.60;99.50
35894;DHT22;21994;48.204;16.516;2023-07-30T09:55:09;24.70;99.20
35894;DHT22;21994;48.204;16.516;2023-07-30T09:57:38;24.60;99.10
35894;DHT22;21994;48.204;16.516;2023-07-30T10:00:04;24.60;97.50
35894;DHT22;21994;48.204;16.516;2023-07-30T10:02:33;24.50;98.20
35894;DHT22;21994;48.204;16.516;2023-07-30T10:05:18;24.60;97.70
35894;DHT22;21994;48.204;16.516;2023-07-30T10:07:56;24.40;96.90
35894;DHT22;21994;48.204;16.516;2023-07-30T10:10:26;24.60;98.40
35894;DHT22;21994;48.204;16.516;2023-07-30T10:12:54;24.80;97.80
35894;DHT22;21994;48.204;16.516;2023-07-30T10:15:21;25.00;97.00
35894;DHT22;21994;48.204;16.516;2023-07-30T10:17:50;25.10;96.20
35894;DHT22;21994;48.204;16.516;2023-07-30T10:20:20;25.00;96.70
35894;DHT22;21994;48.204;16.516;2023-07-30T10:22:47;24.60;97.20
35894;DHT22;21994;48.204;16.516;2023-07-30T10:25:17;24.80;97.20
35894;DHT22;21994;48.204;16.516;2023-07-30T10:27:48;25.20;96.10
35894;DHT22;21994;48.204;16.516;2023-07-30T10:30:16;25.60;96.00
35894;DHT22;21994;48.204;16.516;2023-07-30T10:35:35;25.70;95.30
35894;DHT22;21994;48.204;16.516;2023-07-30T10:40:59;25.30;94.90
35894;DHT22;21994;48.204;16.516;2023-07-30T10:43:35;25.30;94.70
35894;DHT22;21994;48.204;16.516;2023-07-30T10:46:02;25.10;96.20
35894;DHT22;21994;48.204;16.516;2023-07-30T10:48:32;25.10;95.50
35894;DHT22;21994;48.204;16.516;2023-07-30T10:51:02;25.20;95.30
35894;DHT22;21994;48.204;16.516;2023-07-30T10:53:30;25.20;94.70
35894;DHT22;21994;48.204;16.516;2023-07-30T10:55:59;25.20;96.10
35894;DHT22;21994;48.204;16.516;2023-07-30T10:58:29;25.00;96.80
35894;DHT22;21994;48.204;16.516;2023-07-30T11:00:55;24.90;97.30
35894;DHT22;21994;48.204;16.516;2023-07-30T11:03:23;24.40;99.90
35894;DHT22;21994;48.204;16.516;2023-07-30T11:05:51;23.50;99.90
35894;DHT22;21994;48.204;16.516;2023-07-30T11:08:17;22.30;99.90
35894;DHT22;21994;48.204;16.516;2023-07-30T11:10:46;21.70;99.90
35894;DHT22;21994;48.204;16.516;2023-07-30T11:13:13;21.20;99.90
35894;DHT22;21994;48.204;16.516;2023-07-30T11:15:43;20.90;99.90
35894;DHT22;21994;48.204;16.516;2023-07-30T11:18:09;20.70;99.90
35894;DHT22;21994;48.204;16.516;2023-07-30T11:20:36;20.90;99.90
35894;DHT22;21994;48.204;16.516;2023-07-30T11:23:02;21.10;99.90
35894;DHT22;21994;48.204;16.516;2023-07-30T11:25:28;21.30;99.90
35894;DHT22;21994;48.204;16.516;2023-07-30T11:27:54;22.10;99.90
35894;DHT22;21994;48.204;16.516;2023-07-30T11:30:20;22.90;99.90
35894;DHT22;21994;48.204;16.516;2023-07-30T11:32:45;23.40;99.90
35894;DHT22;21994;48.204;16.516;2023-07-30T11:35:12;23.70;99.90
35894;DHT22;21994;48.204;16.516;2023-07-30T11:37:38;23.80;99.90
35894;DHT22;21994;48.204;16.516;2023-07-30T11:40:09;24.30;99.90
35894;DHT22;21994;48.204;16.516;2023-07-30T11:42:35;24.50;99.90
35894;DHT22;21994;48.204;16.516;2023-07-30T11:45:23;24.80;99.90
35894;DHT22;21994;48.204;16.516;2023-07-30T11:47:49;24.80;99.90
35894;DHT22;21994;48.204;16.516;2023-07-30T11:50:15;24.80;99.90
35894;DHT22;21994;48.204;16.516;2023-07-30T11:52:51;25.10;99.90
35894;DHT22;21994;48.204;16.516;2023-07-30T11:55:20;25.20;99.90
35894;DHT22;21994;48.204;16.516;2023-07-30T11:57:46;25.30;99.90
35894;DHT22;21994;48.204;16.516;2023-07-30T12:00:12;25.80;99.90
35894;DHT22;21994;48.204;16.516;2023-07-30T12:02:38;26.30;99.90
35894;DHT22;21994;48.204;16.516;2023-07-30T12:05:05;26.50;99.90
35894;DHT22;21994;48.204;16.516;2023-07-30T12:07:32;26.30;99.90
35894;DHT22;21994;48.204;16.516;2023-07-30T12:10:08;25.90;99.90
35894;DHT22;21994;48.204;16.516;2023-07-30T12:12:46;25.60;99.90
35894;DHT22;21994;48.204;16.516;2023-07-30T12:15:18;25.00;99.90
35894;DHT22;21994;48.204;16.516;2023-07-30T12:17:44;24.20;99.90
35894;DHT22;21994;48.204;16.516;2023-07-30T12:20:10;23.50;99.90
35894;DHT22;21994;48.204;16.516;2023-07-30T12:22:36;23.10;99.90
35894;DHT22;21994;48.204;16.516;2023-07-30T12:25:03;22.80;99.90
35894;DHT22;21994;48.204;16.516;2023-07-30T12:27:30;22.80;99.90
35894;DHT22;21994;48.204;16.516;2023-07-30T12:29:56;22.70;99.90
35894;DHT22;21994;48.204;16.516;2023-07-30T12:32:22;22.80;99.90
35894;DHT22;21994;48.204;16.516;2023-07-30T12:34:47;22.90;99.90
35894;DHT22;21994;48.204;16.516;2023-07-30T12:37:13;23.00;99.90
35894;DHT22;21994;48.204;16.516;2023-07-30T12:39:39;23.20;99.90
35894;DHT22;21994;48.204;16.516;2023-07-30T12:42:05;23.30;99.90
35894;DHT22;21994;48.204;16.516;2023-07-30T12:44:30;23.60;99.90
35894;DHT22;21994;48.204;16.516;2023-07-30T12:46:56;24.00;99.90
35894;DHT22;21994;48.204;16.516;2023-07-30T12:49:22;24.30;99.90
35894;DHT22;21994;48.204;16.516;2023-07-30T12:51:48;24.40;99.90
35894;DHT22;21994;48.204;16.516;2023-07-30T12:54:13;24.30;99.90
35894;DHT22;21994;48.204;16.516;2023-07-30T12:56:39;24.20;99.90
35894;DHT22;21994;48.204;16.516;2023-07-30T12:59:05;23.90;99.90
35894;DHT22;21994;48.204;16.516;2023-07-30T13:01:31;23.90;99.90
35894;DHT22;21994;48.204;16.516;2023-07-30T13:03:56;24.00;99.90
35894;DHT22;21994;48.204;16.516;2023-07-30T13:06:22;23.90;99.90
35894;DHT22;21994;48.204;16.516;2023-07-30T13:08:48;23.80;99.90
35894;DHT22;21994;48.204;16.516;2023-07-30T13:11:14;23.80;99.90
35894;DHT22;21994;48.204;16.516;2023-07-30T13:13:40;24.10;99.90
35894;DHT22;21994;48.204;16.516;2023-07-30T13:16:05;24.50;99.90
35894;DHT22;21994;48.204;16.516;2023-07-30T13:18:31;25.00;99.90
35894;DHT22;21994;48.204;16.516;2023-07-30T13:20:57;25.40;99.90
35894;DHT22;21994;48.204;16.516;2023-07-30T13:23:23;25.70;99.90
35894;DHT22;21994;48.204;16.516;2023-07-30T13:25:52;25.80;99.90
35894;DHT22;21994;48.204;16.516;2023-07-30T13:28:17;26.10;99.90
35894;DHT22;21994;48.204;16.516;2023-07-30T13:30:43;26.20;99.90
35894;DHT22;21994;48.204;16.516;2023-07-30T13:33:09;26.50;99.90
35894;DHT22;21994;48.204;16.516;2023-07-30T13:35:35;26.60;99.90
35894;DHT22;21994;48.204;16.516;2023-07-30T13:38:00;26.60;99.90
35894;DHT22;21994;48.204;16.516;2023-07-30T13:40:26;26.70;99.90
35894;DHT22;21994;48.204;16.516;2023-07-30T13:42:52;26.60;99.90
35894;DHT22;21994;48.204;16.516;2023-07-30T13:45:18;26.50;99.90
35894;DHT22;21994;48.204;16.516;2023-07-30T13:47:44;26.60;99.90
35894;DHT22;21994;48.204;16.516;2023-07-30T13:50:10;26.50;99.90
35894;DHT22;21994;48.204;16.516;2023-07-30T13:52:36;26.20;99.90
35894;DHT22;21994;48.204;16.516;2023-07-30T13:55:01;26.30;99.90
35894;DHT22;21994;48.204;16.516;2023-07-30T13:57:28;26.20;99.90
35894;DHT22;21994;48.204;16.516;2023-07-30T13:59:54;26.20;99.90
35894;DHT22;21994;48.204;16.516;2023-07-30T14:02:20;26.30;99.90
35894;DHT22;21994;48.204;16.516;2023-07-30T14:04:45;26.30;99.90
35894;DHT22;21994;48.204;16.516;2023-07-30T14:07:11;26.40;99.90
35894;DHT22;21994;48.204;16.516;2023-07-30T14:09:37;26.70;99.90
35894;DHT22;21994;48.204;16.516;2023-07-30T14:12:03;26.70;99.90
35894;DHT22;21994;48.204;16.516;2023-07-30T14:14:29;26.40;99.90
35894;DHT22;21994;48.204;16.516;2023-07-30T14:16:55;26.10;99.90
35894;DHT22;21994;48.204;16.516;2023-07-30T14:19:21;25.60;99.90
35894;DHT22;21994;48.204;16.516;2023-07-30T14:21:47;25.30;99.90
35894;DHT22;21994;48.204;16.516;2023-07-30T14:24:13;25.10;99.90
35894;DHT22;21994;48.204;16.516;2023-07-30T14:26:39;24.80;99.90
35894;DHT22;21994;48.204;16.516;2023-07-30T14:29:05;24.70;99.90
35894;DHT22;21994;48.204;16.516;2023-07-30T14:31:31;24.60;99.90
35894;DHT22;21994;48.204;16.516;2023-07-30T14:33:57;24.40;99.90
35894;DHT22;21994;48.204;16.516;2023-07-30T14:36:23;24.50;99.90
35894;DHT22;21994;48.204;16.516;2023-07-30T14:38:49;24.60;99.90
35894;DHT22;21994;48.204;16.516;2023-07-30T14:41:15;24.60;99.90
35894;DHT22;21994;48.204;16.516;2023-07-30T14:43:41;24.40;99.90
35894;DHT22;21994;48.204;16.516;2023-07-30T14:46:06;24.20;99.90
35894;DHT22;21994;48.204;16.516;2023-07-30T14:48:39;24.20;99.90
35894;DHT22;21994;48.204;16.516;2023-07-30T14:51:09;24.20;99.90
35894;DHT22;21994;48.204;16.516;2023-07-30T14:53:35;24.20;99.90
35894;DHT22;21994;48.204;16.516;2023-07-30T14:56:01;24.10;99.90
35894;DHT22;21994;48.204;16.516;2023-07-30T14:58:27;24.10;99.90
35894;DHT22;21994;48.204;16.516;2023-07-30T15:00:53;24.10;99.90
35894;DHT22;21994;48.204;16.516;2023-07-30T15:03:19;24.00;99.90
35894;DHT22;21994;48.204;16.516;2023-07-30T15:05:44;23.90;99.90
35894;DHT22;21994;48.204;16.516;2023-07-30T15:08:10;23.80;99.90
35894;DHT22;21994;48.204;16.516;2023-07-30T15:10:36;23.60;99.90
35894;DHT22;21994;48.204;16.516;2023-07-30T15:13:02;23.40;99.90
35894;DHT22;21994;48.204;16.516;2023-07-30T15:15:28;23.10;99.90
35894;DHT22;21994;48.204;16.516;2023-07-30T15:17:54;22.80;99.90